sensor_id;sensor_type;location;lat;lon;timestamp;noise_LAeq;noise_LA_min;noise_LA_max;noise_LA01;noise_LA95
64393;Laerm;50712;49.506;10.400;2023-12-28T00:00:05;47.01;45.90;47.96;;
64393;Laerm;50712;49.506;10.400;2023-12-28T00:00:36;47.01;45.92;47.95;;
64393;Laerm;50712;49.506;10.400;2023-12-28T00:01:06;47.03;45.90;47.94;;
64393;Laerm;50712;49.506;10.400;2023-12-28T00:01:37;47.03;45.97;47.89;;
64393;Laerm;50712;49.506;10.400;2023-12-28T00:02:07;47.02;46.08;48.10;;
64393;Laerm;50712;49.506;10.400;2023-12-28T00:02:37;47.05;45.88;47.92;;
64393;Laerm;50712;49.506;10.400;2023-12-28T00:03:08;47.03;45.99;47.98;;
64393;Laerm;50712;49.506;10.400;2023-12-28T00:03:38;47.02;45.85;48.12;;
64393;Laerm;50712;49.506;10.400;2023-12-28T00:04:10;47.01;46.04;48.14;;
64393;Laerm;50712;49.506;10.400;2023-12-28T00:04:41;47.02;46.05;48.04;;
64393;Laerm;50712;49.506;10.400;2023-12-28T00:05:11;47.03;46.01;47.95;;
64393;Laerm;50712;49.506;10.400;2023-12-28T00:05:41;47.01;45.72;47.84;;
64393;Laerm;50712;49.506;10.400;2023-12-28T00:06:12;47.01;46.16;48.73;;
64393;Laerm;50712;49.506;10.400;2023-12-28T00:06:42;47.04;46.02;48.45;;
64393;Laerm;50712;49.506;10.400;2023-12-28T00:07:13;47.02;46.16;47.83;;
64393;Laerm;50712;49.506;10.400;2023-12-28T00:07:43;47.03;46.02;48.19;;
64393;Laerm;50712;49.506;10.400;2023-12-28T00:08:14;47.02;46.09;47.98;;
64393;Laerm;50712;49.506;10.400;2023-12-28T00:08:44;47.01;46.04;48.19;;
64393;Laerm;50712;49.506;10.400;2023-12-28T00:09:14;47.04;46.07;47.95;;
64393;Laerm;50712;49.506;10.400;2023-12-28T00:09:44;47.02;45.94;47.83;;
64393;Laerm;50712;49.506;10.400;2023-12-28T00:10:15;47.01;46.05;47.97;;
64393;Laerm;50712;49.506;10.400;2023-12-28T00:10:45;47.05;46.05;49.28;;
64393;Laerm;50712;49.506;10.400;2023-12-28T00:11:16;47.03;45.84;47.98;;
64393;Laerm;50712;49.506;10.400;2023-12-28T00:11:46;47.02;46.14;48.12;;
64393;Laerm;50712;49.506;10.400;2023-12-28T00:12:17;47.03;45.93;48.10;;
64393;Laerm;50712;49.506;10.400;2023-12-28T00:12:47;47.02;45.95;48.13;;
64393;Laerm;50712;49.506;10.400;2023-12-28T00:13:17;47.03;46.00;47.91;;
64393;Laerm;50712;49.506;10.400;2023-12-28T00:13:48;47.04;45.83;47.96;;
64393;Laerm;50712;49.506;10.400;2023-12-28T00:14:18;47.02;45.87;47.88;;
64393;Laerm;50712;49.506;10.400;2023-12-28T00:14:49;47.00;45.87;47.94;;
64393;Laerm;50712;49.506;10.400;2023-12-28T00:15:51;47.01;46.01;47.90;;
64393;Laerm;50712;49.506;10.400;2023-12-28T00:16:22;47.00;45.91;47.86;;
64393;Laerm;50712;49.506;10.400;2023-12-28T00:16:52;47.01;46.08;48.04;;
64393;Laerm;50712;49.506;10.400;2023-12-28T00:17:22;47.04;46.10;48.49;;
64393;Laerm;50712;49.506;10.400;2023-12-28T00:17:53;47.03;45.98;47.88;;
64393;Laerm;50712;49.506;10.400;2023-12-28T00:18:23;47.05;46.08;47.86;;
64393;Laerm;50712;49.506;10.400;2023-12-28T00:18:53;47.00;45.92;47.82;;
64393;Laerm;50712;49.506;10.400;2023-12-28T00:19:24;47.02;46.06;47.87;;
64393;Laerm;50712;49.506;10.400;2023-12-28T00:19:54;47.03;45.86;47.93;;
64393;Laerm;50712;49.506;10.400;2023-12-28T00:20:25;47.02;46.13;47.93;;
64393;Laerm;50712;49.506;10.400;2023-12-28T00:20:55;47.02;46.16;47.92;;
64393;Laerm;50712;49.506;10.400;2023-12-28T00:21:25;47.01;45.92;48.07;;
64393;Laerm;50712;49.506;10.400;2023-12-28T00:21:55;47.01;45.92;48.20;;
64393;Laerm;50712;49.506;10.400;2023-12-28T00:22:26;47.03;46.08;48.03;;
64393;Laerm;50712;49.506;10.400;2023-12-28T00:22:56;47.02;45.85;47.80;;
64393;Laerm;50712;49.506;10.400;2023-12-28T00:23:28;47.02;46.04;47.96;;
64393;Laerm;50712;49.506;10.400;2023-12-28T00:23:58;47.04;45.95;49.08;;
64393;Laerm;50712;49.506;10.400;2023-12-28T00:24:59;47.05;46.00;47.98;;
64393;Laerm;50712;49.506;10.400;2023-12-28T00:25:29;47.02;46.13;48.04;;
64393;Laerm;50712;49.506;10.400;2023-12-28T00:25:59;47.04;46.08;47.86;;
64393;Laerm;50712;49.506;10.400;2023-12-28T00:26:30;47.02;46.00;48.17;;
64393;Laerm;50712;49.506;10.400;2023-12-28T00:27:07;47.04;46.04;47.97;;
64393;Laerm;50712;49.506;10.400;2023-12-28T00:27:38;47.04;45.80;47.89;;
64393;Laerm;50712;49.506;10.400;2023-12-28T00:28:09;47.04;46.00;48.06;;
64393;Laerm;50712;49.506;10.400;2023-12-28T00:28:39;47.04;46.11;48.00;;
64393;Laerm;50712;49.506;10.400;2023-12-28T00:29:09;47.02;46.00;48.04;;
64393;Laerm;50712;49.506;10.400;2023-12-28T00:29:40;47.04;46.05;48.01;;
64393;Laerm;50712;49.506;10.400;2023-12-28T00:30:11;47.03;46.05;47.85;;
64393;Laerm;50712;49.506;10.400;2023-12-28T00:30:42;47.04;46.00;48.08;;
64393;Laerm;50712;49.506;10.400;2023-12-28T00:31:12;47.03;45.87;47.87;;
64393;Laerm;50712;49.506;10.400;2023-12-28T00:31:42;47.06;46.07;47.92;;
64393;Laerm;50712;49.506;10.400;2023-12-28T00:32:13;47.03;45.79;48.17;;
64393;Laerm;50712;49.506;10.400;2023-12-28T00:32:43;47.04;46.02;49.07;;
64393;Laerm;50712;49.506;10.400;2023-12-28T00:33:16;47.03;46.09;47.97;;
64393;Laerm;50712;49.506;10.400;2023-12-28T00:33:46;47.02;45.92;47.81;;
64393;Laerm;50712;49.506;10.400;2023-12-28T00:34:17;47.03;46.14;48.21;;
64393;Laerm;50712;49.506;10.400;2023-12-28T00:34:48;47.04;45.94;47.98;;
64393;Laerm;50712;49.506;10.400;2023-12-28T00:35:19;47.04;46.20;47.80;;
64393;Laerm;50712;49.506;10.400;2023-12-28T00:35:49;47.02;46.14;48.08;;
64393;Laerm;50712;49.506;10.400;2023-12-28T00:36:20;47.02;46.08;47.85;;
64393;Laerm;50712;49.506;10.400;2023-12-28T00:36:50;47.04;46.08;47.91;;
64393;Laerm;50712;49.506;10.400;2023-12-28T00:37:21;47.03;45.80;47.99;;
64393;Laerm;50712;49.506;10.400;2023-12-28T00:37:51;47.04;46.16;47.95;;
64393;Laerm;50712;49.506;10.400;2023-12-28T00:38:21;47.01;46.00;48.41;;
64393;Laerm;50712;49.506;10.400;2023-12-28T00:38:52;47.03;46.12;47.96;;
64393;Laerm;50712;49.506;10.400;2023-12-28T00:39:22;47.02;46.10;48.02;;
64393;Laerm;50712;49.506;10.400;2023-12-28T00:39:53;47.00;46.03;47.89;;
64393;Laerm;50712;49.506;10.400;2023-12-28T00:40:23;47.01;45.98;47.81;;
64393;Laerm;50712;49.506;10.400;2023-12-28T00:40:54;47.02;46.14;47.97;;
64393;Laerm;50712;49.506;10.400;2023-12-28T00:41:25;47.02;46.13;48.12;;
64393;Laerm;50712;49.506;10.400;2023-12-28T00:41:55;47.02;46.08;48.69;;
64393;Laerm;50712;49.506;10.400;2023-12-28T00:42:26;47.00;46.03;47.96;;
64393;Laerm;50712;49.506;10.400;2023-12-28T00:42:56;47.04;45.89;47.99;;
64393;Laerm;50712;49.506;10.400;2023-12-28T00:43:26;47.02;45.99;48.24;;
64393;Laerm;50712;49.506;10.400;2023-12-28T00:43:57;47.03;45.96;47.99;;
64393;Laerm;50712;49.506;10.400;2023-12-28T00:44:27;47.02;46.10;47.85;;
64393;Laerm;50712;49.506;10.400;2023-12-28T00:44:57;47.00;45.92;47.90;;
64393;Laerm;50712;49.506;10.400;2023-12-28T00:45:29;47.02;46.11;47.98;;
64393;Laerm;50712;49.506;10.400;2023-12-28T00:45:59;47.02;45.96;47.87;;
64393;Laerm;50712;49.506;10.400;2023-12-28T00:46:30;47.01;46.06;47.96;;
64393;Laerm;50712;49.506;10.400;2023-12-28T00:47:00;47.03;45.93;48.37;;
64393;Laerm;50712;49.506;10.400;2023-12-28T00:47:30;47.00;46.10;48.16;;
64393;Laerm;50712;49.506;10.400;2023-12-28T00:48:01;47.02;46.16;47.91;;
64393;Laerm;50712;49.506;10.400;2023-12-28T00:48:31;47.03;46.08;48.05;;
64393;Laerm;50712;49.506;10.400;2023-12-28T00:49:01;47.02;46.07;47.91;;
64393;Laerm;50712;49.506;10.400;2023-12-28T00:49:32;47.01;46.10;48.28;;
64393;Laerm;50712;49.506;10.400;2023-12-28T00:50:02;47.01;46.21;47.81;;
64393;Laerm;50712;49.506;10.400;2023-12-28T00:50:32;47.03;46.07;47.98;;
64393;Laerm;50712;49.506;10.400;2023-12-28T00:51:03;47.03;45.90;47.90;;
64393;Laerm;50712;49.506;10.400;2023-12-28T00:51:33;47.03;46.20;47.93;;
64393;Laerm;50712;49.506;10.400;2023-12-28T00:52:04;47.04;45.93;47.95;;
64393;Laerm;50712;49.506;10.400;2023-12-28T00:52:34;47.02;46.10;48.04;;
64393;Laerm;50712;49.506;10.400;2023-12-28T00:53:05;47.01;46.10;47.91;;
64393;Laerm;50712;49.506;10.400;2023-12-28T00:53:35;47.01;45.88;47.93;;
64393;Laerm;50712;49.506;10.400;2023-12-28T00:54:36;47.03;46.01;48.06;;
64393;Laerm;50712;49.506;10.400;2023-12-28T00:55:37;47.01;46.09;48.00;;
64393;Laerm;50712;49.506;10.400;2023-12-28T00:56:09;47.02;46.04;48.00;;
64393;Laerm;50712;49.506;10.400;2023-12-28T00:56:39;47.04;45.98;47.85;;
64393;Laerm;50712;49.506;10.400;2023-12-28T00:57:10;47.00;46.08;47.89;;
64393;Laerm;50712;49.506;10.400;2023-12-28T00:57:41;47.02;46.07;48.01;;
64393;Laerm;50712;49.506;10.400;2023-12-28T00:58:11;47.02;46.02;47.96;;
64393;Laerm;50712;49.506;10.400;2023-12-28T00:58:42;47.01;45.96;47.93;;
64393;Laerm;50712;49.506;10.400;2023-12-28T00:59:13;46.99;45.96;48.72;;
64393;Laerm;50712;49.506;10.400;2023-12-28T00:59:44;47.02;46.08;47.91;;
64393;Laerm;50712;49.506;10.400;2023-12-28T01:00:14;47.02;45.83;48.71;;
64393;Laerm;50712;49.506;10.400;2023-12-28T01:00:46;47.00;46.06;48.20;;
64393;Laerm;50712;49.506;10.400;2023-12-28T01:01:17;46.99;45.82;48.06;;
64393;Laerm;50712;49.506;10.400;2023-12-28T01:01:47;47.00;46.05;47.98;;
64393;Laerm;50712;49.506;10.400;2023-12-28T01:02:18;47.00;46.10;48.10;;
64393;Laerm;50712;49.506;10.400;2023-12-28T01:02:49;47.02;46.00;47.87;;
64393;Laerm;50712;49.506;10.400;2023-12-28T01:03:19;47.02;46.06;47.91;;
64393;Laerm;50712;49.506;10.400;2023-12-28T01:03:50;47.00;46.09;48.00;;
64393;Laerm;50712;49.506;10.400;2023-12-28T01:04:20;46.99;45.86;47.86;;
64393;Laerm;50712;49.506;10.400;2023-12-28T01:04:53;46.99;46.01;47.93;;
64393;Laerm;50712;49.506;10.400;2023-12-28T01:05:23;46.99;45.96;48.00;;
64393;Laerm;50712;49.506;10.400;2023-12-28T01:05:56;46.99;46.18;48.11;;
64393;Laerm;50712;49.506;10.400;2023-12-28T01:06:27;47.00;46.14;48.06;;
64393;Laerm;50712;49.506;10.400;2023-12-28T01:06:58;47.01;46.07;47.81;;
64393;Laerm;50712;49.506;10.400;2023-12-28T01:07:32;47.00;46.05;48.54;;
64393;Laerm;50712;49.506;10.400;2023-12-28T01:08:02;46.99;45.83;47.92;;
64393;Laerm;50712;49.506;10.400;2023-12-28T01:08:33;46.98;45.85;47.88;;
64393;Laerm;50712;49.506;10.400;2023-12-28T01:09:06;46.99;46.00;47.90;;
64393;Laerm;50712;49.506;10.400;2023-12-28T01:09:37;46.99;45.94;48.40;;
64393;Laerm;50712;49.506;10.400;2023-12-28T01:10:07;46.99;46.04;47.93;;
64393;Laerm;50712;49.506;10.400;2023-12-28T01:10:37;46.98;45.92;47.87;;
64393;Laerm;50712;49.506;10.400;2023-12-28T01:11:10;46.96;46.02;47.94;;
64393;Laerm;50712;49.506;10.400;2023-12-28T01:11:41;46.97;45.90;48.64;;
64393;Laerm;50712;49.506;10.400;2023-12-28T01:12:11;46.98;46.00;48.01;;
64393;Laerm;50712;49.506;10.400;2023-12-28T01:12:41;46.98;45.88;48.08;;
64393;Laerm;50712;49.506;10.400;2023-12-28T01:13:12;46.98;45.96;48.58;;
64393;Laerm;50712;49.506;10.400;2023-12-28T01:13:44;46.98;46.00;47.80;;
64393;Laerm;50712;49.506;10.400;2023-12-28T01:14:14;46.98;46.07;47.74;;
64393;Laerm;50712;49.506;10.400;2023-12-28T01:14:45;46.98;46.08;47.93;;
64393;Laerm;50712;49.506;10.400;2023-12-28T01:15:15;47.00;46.18;47.90;;
64393;Laerm;50712;49.506;10.400;2023-12-28T01:15:47;46.98;46.03;47.91;;
64393;Laerm;50712;49.506;10.400;2023-12-28T01:16:18;46.97;45.95;48.03;;
64393;Laerm;50712;49.506;10.400;2023-12-28T01:16:48;47.00;45.98;48.07;;
64393;Laerm;50712;49.506;10.400;2023-12-28T01:17:19;46.99;45.92;47.98;;
64393;Laerm;50712;49.506;10.400;2023-12-28T01:17:49;46.99;46.12;47.73;;
64393;Laerm;50712;49.506;10.400;2023-12-28T01:18:20;47.00;46.08;48.16;;
64393;Laerm;50712;49.506;10.400;2023-12-28T01:18:50;46.98;45.59;48.14;;
64393;Laerm;50712;49.506;10.400;2023-12-28T01:19:21;47.00;45.79;47.88;;
64393;Laerm;50712;49.506;10.400;2023-12-28T01:19:53;46.99;45.69;47.93;;
64393;Laerm;50712;49.506;10.400;2023-12-28T01:20:23;47.00;46.04;47.97;;
64393;Laerm;50712;49.506;10.400;2023-12-28T01:20:54;46.99;46.06;47.96;;
64393;Laerm;50712;49.506;10.400;2023-12-28T01:21:24;47.00;46.06;47.96;;
64393;Laerm;50712;49.506;10.400;2023-12-28T01:21:56;47.01;45.87;47.79;;
64393;Laerm;50712;49.506;10.400;2023-12-28T01:22:26;47.01;45.97;48.15;;
64393;Laerm;50712;49.506;10.400;2023-12-28T01:22:57;47.01;46.04;47.94;;
64393;Laerm;50712;49.506;10.400;2023-12-28T01:23:27;47.00;46.01;47.91;;
64393;Laerm;50712;49.506;10.400;2023-12-28T01:24:28;47.03;46.22;48.07;;
64393;Laerm;50712;49.506;10.400;2023-12-28T01:24:58;47.02;45.60;48.62;;
64393;Laerm;50712;49.506;10.400;2023-12-28T01:25:29;47.03;46.13;47.88;;
64393;Laerm;50712;49.506;10.400;2023-12-28T01:26:00;47.02;46.01;48.19;;
64393;Laerm;50712;49.506;10.400;2023-12-28T01:26:30;47.04;46.07;47.92;;
64393;Laerm;50712;49.506;10.400;2023-12-28T01:27:00;47.03;46.12;48.29;;
64393;Laerm;50712;49.506;10.400;2023-12-28T01:27:31;47.05;45.74;47.91;;
64393;Laerm;50712;49.506;10.400;2023-12-28T01:28:01;47.05;46.07;47.89;;
64393;Laerm;50712;49.506;10.400;2023-12-28T01:28:31;47.01;46.11;47.90;;
64393;Laerm;50712;49.506;10.400;2023-12-28T01:29:02;47.02;46.11;47.97;;
64393;Laerm;50712;49.506;10.400;2023-12-28T01:29:33;47.04;45.98;47.90;;
64393;Laerm;50712;49.506;10.400;2023-12-28T01:30:05;47.02;45.90;48.31;;
64393;Laerm;50712;49.506;10.400;2023-12-28T01:30:35;47.06;46.13;48.15;;
64393;Laerm;50712;49.506;10.400;2023-12-28T01:31:07;47.03;45.97;47.96;;
64393;Laerm;50712;49.506;10.400;2023-12-28T01:31:37;47.04;45.88;48.01;;
64393;Laerm;50712;49.506;10.400;2023-12-28T01:32:09;47.02;45.77;48.10;;
64393;Laerm;50712;49.506;10.400;2023-12-28T01:32:41;47.04;46.07;48.30;;
64393;Laerm;50712;49.506;10.400;2023-12-28T01:33:12;47.04;45.97;47.90;;
64393;Laerm;50712;49.506;10.400;2023-12-28T01:33:42;47.03;45.97;47.92;;
64393;Laerm;50712;49.506;10.400;2023-12-28T01:34:12;47.03;46.15;47.99;;
64393;Laerm;50712;49.506;10.400;2023-12-28T01:34:43;47.04;45.87;47.99;;
64393;Laerm;50712;49.506;10.400;2023-12-28T01:35:13;47.03;46.14;47.86;;
64393;Laerm;50712;49.506;10.400;2023-12-28T01:35:44;47.04;45.81;48.84;;
64393;Laerm;50712;49.506;10.400;2023-12-28T01:36:18;47.04;45.93;48.59;;
64393;Laerm;50712;49.506;10.400;2023-12-28T01:36:49;47.02;46.04;47.88;;
64393;Laerm;50712;49.506;10.400;2023-12-28T01:37:19;47.03;46.04;48.32;;
64393;Laerm;50712;49.506;10.400;2023-12-28T01:37:50;47.04;46.10;48.00;;
64393;Laerm;50712;49.506;10.400;2023-12-28T01:38:20;47.03;46.04;47.88;;
64393;Laerm;50712;49.506;10.400;2023-12-28T01:38:50;47.03;46.15;47.97;;
64393;Laerm;50712;49.506;10.400;2023-12-28T01:39:21;47.05;45.98;48.88;;
64393;Laerm;50712;49.506;10.400;2023-12-28T01:39:51;47.03;45.92;47.84;;
64393;Laerm;50712;49.506;10.400;2023-12-28T01:40:21;47.02;46.09;48.05;;
64393;Laerm;50712;49.506;10.400;2023-12-28T01:40:52;47.04;46.15;48.02;;
64393;Laerm;50712;49.506;10.400;2023-12-28T01:41:23;47.05;46.14;48.09;;
64393;Laerm;50712;49.506;10.400;2023-12-28T01:41:53;47.03;46.20;47.96;;
64393;Laerm;50712;49.506;10.400;2023-12-28T01:42:24;47.03;46.20;47.82;;
64393;Laerm;50712;49.506;10.400;2023-12-28T01:42:54;47.03;46.05;47.89;;
64393;Laerm;50712;49.506;10.400;2023-12-28T01:43:24;47.03;46.05;48.03;;
64393;Laerm;50712;49.506;10.400;2023-12-28T01:43:55;47.02;46.09;48.03;;
64393;Laerm;50712;49.506;10.400;2023-12-28T01:44:26;47.04;46.10;47.96;;
64393;Laerm;50712;49.506;10.400;2023-12-28T01:44:57;47.04;45.94;47.94;;
64393;Laerm;50712;49.506;10.400;2023-12-28T01:45:27;47.02;46.06;48.16;;
64393;Laerm;50712;49.506;10.400;2023-12-28T01:45:58;47.05;46.13;48.99;;
64393;Laerm;50712;49.506;10.400;2023-12-28T01:46:28;47.03;45.92;48.01;;
64393;Laerm;50712;49.506;10.400;2023-12-28T01:46:59;47.04;46.01;48.03;;
64393;Laerm;50712;49.506;10.400;2023-12-28T01:47:30;47.06;45.98;47.90;;
64393;Laerm;50712;49.506;10.400;2023-12-28T01:48:00;47.07;45.70;47.95;;
64393;Laerm;50712;49.506;10.400;2023-12-28T01:48:32;47.06;46.07;48.06;;
64393;Laerm;50712;49.506;10.400;2023-12-28T01:49:03;47.05;45.91;47.92;;
64393;Laerm;50712;49.506;10.400;2023-12-28T01:49:35;47.07;46.14;48.05;;
64393;Laerm;50712;49.506;10.400;2023-12-28T01:50:37;47.02;46.06;47.88;;
64393;Laerm;50712;49.506;10.400;2023-12-28T01:51:07;47.03;45.92;47.93;;
64393;Laerm;50712;49.506;10.400;2023-12-28T01:51:38;47.00;46.05;48.38;;
64393;Laerm;50712;49.506;10.400;2023-12-28T01:52:09;47.01;45.96;47.95;;
64393;Laerm;50712;49.506;10.400;2023-12-28T01:52:40;47.00;46.03;48.36;;
64393;Laerm;50712;49.506;10.400;2023-12-28T01:53:11;46.98;45.83;47.87;;
64393;Laerm;50712;49.506;10.400;2023-12-28T01:53:43;46.98;45.82;47.89;;
64393;Laerm;50712;49.506;10.400;2023-12-28T01:54:15;46.99;46.05;48.59;;
64393;Laerm;50712;49.506;10.400;2023-12-28T01:54:46;46.99;46.07;48.08;;
64393;Laerm;50712;49.506;10.400;2023-12-28T01:55:18;46.99;46.05;47.95;;
64393;Laerm;50712;49.506;10.400;2023-12-28T01:55:49;46.97;46.02;47.89;;
64393;Laerm;50712;49.506;10.400;2023-12-28T01:56:19;46.98;45.76;47.87;;
64393;Laerm;50712;49.506;10.400;2023-12-28T01:56:51;46.98;46.09;48.21;;
64393;Laerm;50712;49.506;10.400;2023-12-28T01:57:21;46.99;45.80;47.93;;
64393;Laerm;50712;49.506;10.400;2023-12-28T01:57:52;47.00;45.81;48.62;;
64393;Laerm;50712;49.506;10.400;2023-12-28T01:58:23;47.00;46.17;47.90;;
64393;Laerm;50712;49.506;10.400;2023-12-28T01:58:53;47.00;45.98;48.09;;
64393;Laerm;50712;49.506;10.400;2023-12-28T01:59:24;47.00;45.90;47.91;;
64393;Laerm;50712;49.506;10.400;2023-12-28T01:59:55;47.01;45.91;48.11;;
64393;Laerm;50712;49.506;10.400;2023-12-28T02:00:25;47.00;45.98;48.17;;
64393;Laerm;50712;49.506;10.400;2023-12-28T02:00:56;47.02;45.93;47.91;;
64393;Laerm;50712;49.506;10.400;2023-12-28T02:01:27;47.01;45.87;47.88;;
64393;Laerm;50712;49.506;10.400;2023-12-28T02:01:59;47.00;46.04;48.09;;
64393;Laerm;50712;49.506;10.400;2023-12-28T02:02:33;47.01;46.12;48.01;;
64393;Laerm;50712;49.506;10.400;2023-12-28T02:03:06;47.02;45.88;48.02;;
64393;Laerm;50712;49.506;10.400;2023-12-28T02:03:37;47.03;46.08;48.13;;
64393;Laerm;50712;49.506;10.400;2023-12-28T02:04:08;47.01;46.10;48.02;;
64393;Laerm;50712;49.506;10.400;2023-12-28T02:04:38;47.00;46.00;47.98;;
64393;Laerm;50712;49.506;10.400;2023-12-28T02:05:10;47.02;46.14;47.90;;
64393;Laerm;50712;49.506;10.400;2023-12-28T02:05:42;47.01;45.94;47.97;;
64393;Laerm;50712;49.506;10.400;2023-12-28T02:06:13;47.03;45.87;48.06;;
64393;Laerm;50712;49.506;10.400;2023-12-28T02:06:46;47.03;46.14;48.13;;
64393;Laerm;50712;49.506;10.400;2023-12-28T02:07:16;47.02;46.06;48.99;;
64393;Laerm;50712;49.506;10.400;2023-12-28T02:07:48;47.05;45.85;47.87;;
64393;Laerm;50712;49.506;10.400;2023-12-28T02:08:19;47.02;45.98;47.91;;
64393;Laerm;50712;49.506;10.400;2023-12-28T02:08:49;47.02;46.07;47.88;;
64393;Laerm;50712;49.506;10.400;2023-12-28T02:09:20;47.02;45.90;47.90;;
64393;Laerm;50712;49.506;10.400;2023-12-28T02:09:50;47.02;45.91;47.87;;
64393;Laerm;50712;49.506;10.400;2023-12-28T02:10:21;47.02;45.96;47.98;;
64393;Laerm;50712;49.506;10.400;2023-12-28T02:10:51;47.01;45.90;47.94;;
64393;Laerm;50712;49.506;10.400;2023-12-28T02:11:22;47.03;46.07;48.50;;
64393;Laerm;50712;49.506;10.400;2023-12-28T02:11:53;47.04;46.05;47.99;;
64393;Laerm;50712;49.506;10.400;2023-12-28T02:12:24;47.03;45.97;47.94;;
64393;Laerm;50712;49.506;10.400;2023-12-28T02:12:54;47.03;45.93;48.08;;
64393;Laerm;50712;49.506;10.400;2023-12-28T02:13:26;47.03;45.91;48.04;;
64393;Laerm;50712;49.506;10.400;2023-12-28T02:13:57;47.03;46.00;48.15;;
64393;Laerm;50712;49.506;10.400;2023-12-28T02:14:27;47.02;45.93;47.84;;
64393;Laerm;50712;49.506;10.400;2023-12-28T02:14:58;47.05;45.92;48.38;;
64393;Laerm;50712;49.506;10.400;2023-12-28T02:15:29;47.02;46.14;48.04;;
64393;Laerm;50712;49.506;10.400;2023-12-28T02:16:25;47.02;45.99;48.03;;
64393;Laerm;50712;49.506;10.400;2023-12-28T02:17:04;47.02;46.08;48.36;;
64393;Laerm;50712;49.506;10.400;2023-12-28T02:17:44;47.04;45.89;48.01;;
64393;Laerm;50712;49.506;10.400;2023-12-28T02:18:20;47.03;46.16;47.85;;
64393;Laerm;50712;49.506;10.400;2023-12-28T02:18:53;47.03;45.95;47.95;;
64393;Laerm;50712;49.506;10.400;2023-12-28T02:19:44;47.03;46.03;48.60;;
64393;Laerm;50712;49.506;10.400;2023-12-28T02:20:19;47.01;46.06;48.09;;
64393;Laerm;50712;49.506;10.400;2023-12-28T02:20:51;47.04;46.12;48.37;;
64393;Laerm;50712;49.506;10.400;2023-12-28T02:21:21;46.99;45.97;48.13;;
64393;Laerm;50712;49.506;10.400;2023-12-28T02:21:54;47.03;45.77;47.97;;
64393;Laerm;50712;49.506;10.400;2023-12-28T02:22:25;47.01;45.94;47.86;;
64393;Laerm;50712;49.506;10.400;2023-12-28T02:22:57;47.03;46.05;48.08;;
64393;Laerm;50712;49.506;10.400;2023-12-28T02:23:28;47.02;45.99;48.01;;
64393;Laerm;50712;49.506;10.400;2023-12-28T02:23:58;47.02;46.16;48.13;;
64393;Laerm;50712;49.506;10.400;2023-12-28T02:24:28;47.00;46.05;48.00;;
64393;Laerm;50712;49.506;10.400;2023-12-28T02:25:30;47.02;45.89;47.98;;
64393;Laerm;50712;49.506;10.400;2023-12-28T02:26:01;47.02;45.69;48.09;;
64393;Laerm;50712;49.506;10.400;2023-12-28T02:26:31;47.01;45.78;48.76;;
64393;Laerm;50712;49.506;10.400;2023-12-28T02:27:01;47.03;46.00;48.04;;
64393;Laerm;50712;49.506;10.400;2023-12-28T02:28:09;47.03;45.96;48.24;;
64393;Laerm;50712;49.506;10.400;2023-12-28T02:29:10;47.03;45.95;48.14;;
64393;Laerm;50712;49.506;10.400;2023-12-28T02:29:40;47.02;46.06;48.54;;
64393;Laerm;50712;49.506;10.400;2023-12-28T02:30:11;47.03;46.07;48.52;;
64393;Laerm;50712;49.506;10.400;2023-12-28T02:30:42;47.01;46.01;47.93;;
64393;Laerm;50712;49.506;10.400;2023-12-28T02:31:26;47.02;46.05;48.59;;
64393;Laerm;50712;49.506;10.400;2023-12-28T02:32:04;47.02;46.06;48.10;;
64393;Laerm;50712;49.506;10.400;2023-12-28T02:33:38;47.01;45.91;48.13;;
64393;Laerm;50712;49.506;10.400;2023-12-28T02:34:27;47.02;45.90;47.88;;
64393;Laerm;50712;49.506;10.400;2023-12-28T02:35:03;47.02;46.04;48.02;;
64393;Laerm;50712;49.506;10.400;2023-12-28T02:35:58;47.03;45.98;48.74;;
64393;Laerm;50712;49.506;10.400;2023-12-28T02:36:31;47.00;46.13;47.92;;
64393;Laerm;50712;49.506;10.400;2023-12-28T02:37:04;46.99;45.82;47.83;;
64393;Laerm;50712;49.506;10.400;2023-12-28T02:37:36;47.02;45.93;47.94;;
64393;Laerm;50712;49.506;10.400;2023-12-28T02:38:12;47.03;46.10;47.94;;
64393;Laerm;50712;49.506;10.400;2023-12-28T02:38:44;47.02;45.98;48.10;;
64393;Laerm;50712;49.506;10.400;2023-12-28T02:39:16;47.01;45.90;47.79;;
64393;Laerm;50712;49.506;10.400;2023-12-28T02:39:48;46.99;45.89;47.94;;
64393;Laerm;50712;49.506;10.400;2023-12-28T02:40:19;47.02;46.05;47.94;;
64393;Laerm;50712;49.506;10.400;2023-12-28T02:40:52;47.00;45.70;47.98;;
64393;Laerm;50712;49.506;10.400;2023-12-28T02:41:24;46.98;45.68;48.01;;
64393;Laerm;50712;49.506;10.400;2023-12-28T02:41:55;46.98;46.16;47.81;;
64393;Laerm;50712;49.506;10.400;2023-12-28T02:42:26;46.98;46.12;48.09;;
64393;Laerm;50712;49.506;10.400;2023-12-28T02:42:56;46.98;46.07;47.91;;
64393;Laerm;50712;49.506;10.400;2023-12-28T02:43:27;46.97;46.01;47.98;;
64393;Laerm;50712;49.506;10.400;2023-12-28T02:43:57;46.97;45.92;47.93;;
64393;Laerm;50712;49.506;10.400;2023-12-28T02:44:27;46.97;45.92;47.93;;
64393;Laerm;50712;49.506;10.400;2023-12-28T02:44:58;46.95;45.97;47.97;;
64393;Laerm;50712;49.506;10.400;2023-12-28T02:45:29;46.95;45.82;47.94;;
64393;Laerm;50712;49.506;10.400;2023-12-28T02:45:59;46.98;45.93;47.99;;
64393;Laerm;50712;49.506;10.400;2023-12-28T02:46:29;46.97;46.05;48.25;;
64393;Laerm;50712;49.506;10.400;2023-12-28T02:47:00;46.97;45.92;47.85;;
64393;Laerm;50712;49.506;10.400;2023-12-28T02:47:30;46.98;46.01;48.09;;
64393;Laerm;50712;49.506;10.400;2023-12-28T02:48:01;46.98;45.99;48.20;;
64393;Laerm;50712;49.506;10.400;2023-12-28T02:48:31;46.97;46.08;48.52;;
64393;Laerm;50712;49.506;10.400;2023-12-28T02:49:02;46.97;45.89;47.97;;
64393;Laerm;50712;49.506;10.400;2023-12-28T02:49:32;46.97;46.00;47.87;;
64393;Laerm;50712;49.506;10.400;2023-12-28T02:50:03;46.97;45.80;48.05;;
64393;Laerm;50712;49.506;10.400;2023-12-28T02:50:34;46.98;46.11;47.94;;
64393;Laerm;50712;49.506;10.400;2023-12-28T02:51:05;46.97;46.00;47.93;;
64393;Laerm;50712;49.506;10.400;2023-12-28T02:51:35;46.98;45.99;47.91;;
64393;Laerm;50712;49.506;10.400;2023-12-28T02:52:05;46.96;46.05;47.90;;
64393;Laerm;50712;49.506;10.400;2023-12-28T02:52:36;46.98;45.94;47.82;;
64393;Laerm;50712;49.506;10.400;2023-12-28T02:53:06;46.97;45.89;48.50;;
64393;Laerm;50712;49.506;10.400;2023-12-28T02:53:37;46.96;45.89;48.17;;
64393;Laerm;50712;49.506;10.400;2023-12-28T02:54:37;47.00;45.83;48.11;;
64393;Laerm;50712;49.506;10.400;2023-12-28T02:55:08;47.00;46.08;47.91;;
64393;Laerm;50712;49.506;10.400;2023-12-28T02:55:38;46.98;45.88;47.89;;
64393;Laerm;50712;49.506;10.400;2023-12-28T02:56:09;46.98;46.02;47.98;;
64393;Laerm;50712;49.506;10.400;2023-12-28T02:56:40;46.98;45.86;48.13;;
64393;Laerm;50712;49.506;10.400;2023-12-28T02:57:11;46.99;45.98;47.92;;
64393;Laerm;50712;49.506;10.400;2023-12-28T02:57:43;46.99;46.03;47.84;;
64393;Laerm;50712;49.506;10.400;2023-12-28T02:58:14;46.97;45.92;47.83;;